Aérodrome :
LOGIN :

S'inscrire | Disclaimer

   EN    FR    IT 

 










Légende :    VFR   VFR Marginal   IFR   IFR Intensif   IFR Très Intensif
Visi : 
Plafond : 
>= 8 km
>= 3000ft
5 à 8 km
1000 à 3000 ft
1500m à 5 km
500 à 1000 ft
800 à 1500m
200 à 500 ft
< 800m
< 200 ft
Symboles :   Orages  Brouillard  Fortes neiges  Fortes précipitations  Vent > 20 kt
SIGMETs :   Divers  Orages  Givrage  Turbulence  Onde Orograph.  Cendres Volcan.







- Altitude de l'aérodrome : 203 ft
- Code IATA : XMJ
- Voir les cartes d'approche


LFBM - Mont-De-Marsan

DERNIER METAR :
  • 200830Z AUTO VRB01KT 9999 SCT026/// BKN038/// BKN045/// ///TCU 07/06 Q1012 TEMPO 4000 SHRA SCT005 BKN010

METARs EXPIRÉS :
  • 200800Z AUTO 00000KT 9999 FEW024/// BKN041/// BKN048/// ///TCU 06/06 Q1012 TEMPO 4000 -RA BECMG BKN045
  • 200730Z AUTO 00000KT 9000 FEW045/// OVC056/// ///TCU 06/06 Q1011 TEMPO 4000 -RA BECMG BKN045
  • 200700Z AUTO 00000KT 8000 BKN049 OVC120 06/06 Q1011 TEMPO 4000 -RA SCT005 BKN012
  • 200630Z AUTO 11002KT 8000 ///TCU 06/06 Q1011 TEMPO 4000 -RA SCT005 BKN012
  • 200600Z AUTO 00000KT 9999 ///TCU 06/06 Q1011 TEMPO 4000 -RA SCT005 BKN012

TAF TAF LFBM
Valide du 20 à 03h jusqu'au 21 à 03h UTC


200200Z 2003/2103 05005KT 9999 BKN045
PROB30
TEMPO 2003/2005 0800 BCFG
TEMPO 2005/2009 4000 -RA SCT005 BKN012
TEMPO 2012/2018 4000 SHRA BKN020TCU
BECMG 2018/2020 BKN012
TEMPO 2020/2103 4000 -RADZ BKN010
Pas de NOTAMs connus pour ce terrain.



MET'MAP, la Météo Aéronautique d'un coup d'oeil ! - Copyright ORBIFLY Décembre 2007 - Disclaimer

ORBIFLY MET'MAP TEAM :

Programmation & Développement : Alexandra Zaïnal
Conception & Développement : Baudouin d'Aumeries
Co-Programmation & Développement : Marc-Olivier Méhu
Soutien technique & logistique : Manuel Goepfert

Contact : metmap@orbifly.com




SOURCES & CREDITS :

   NOAA